Avalon, Texas
Current Conditions -  °F | °C
As of 4:55 AM on Sunday 23 Nov 2014 (Local Time) from KJWY Reporting Station
Moderate Fog Moderate Fog  
Wind Chill: 14°   Ceiling: 200
Heat Index: 14°   Visibility: 0.25mi
Dew Point: 14°   Wind: 6mph
Humidity: 100%   Direction: 210°SSW
Pressure: 29.64"   Gusts: NA
Location:  32.21°N, 96.79°W
Report Text: KJWY 231055Z AUTO 21005KT 1/4SM FG OVC002 14/14 A2964 RMK AO2 P0001 T01360136
Loading
Personal Weather Stations






























Interactive Weather Map New forecast layout! Learn more

10-Day Weather Forecast

Advertisements
Track Severe Weather on mobile